createdAt,value
2022-11-09T00:01:42.734Z,34.60
2022-11-09T00:04:14.419Z,28.30
2022-11-09T00:06:42.499Z,29.20
2022-11-09T00:09:11.537Z,33.40
2022-11-09T00:11:39.541Z,29.70
2022-11-09T00:14:07.437Z,30.90
2022-11-09T00:16:35.220Z,29.70
2022-11-09T00:19:06.545Z,30.00
2022-11-09T00:21:34.547Z,29.70
2022-11-09T00:24:02.475Z,28.60
2022-11-09T00:26:30.584Z,28.30
2022-11-09T00:28:58.670Z,29.10
2022-11-09T00:31:30.053Z,29.90
2022-11-09T00:34:01.477Z,29.70
2022-11-09T00:36:33.147Z,31.20
2022-11-09T00:39:04.518Z,30.60
2022-11-09T00:41:32.580Z,28.70
2022-11-09T00:44:00.592Z,31.00
2022-11-09T00:46:31.454Z,30.20
2022-11-09T00:49:02.880Z,30.30
2022-11-09T00:51:33.769Z,28.10
2022-11-09T00:54:01.709Z,29.60
2022-11-09T00:56:29.450Z,29.00
2022-11-09T00:59:00.746Z,30.90
2022-11-09T01:01:31.838Z,28.40
2022-11-09T01:04:02.986Z,29.60
2022-11-09T01:06:34.360Z,29.30
2022-11-09T01:09:06.190Z,27.00
2022-11-09T01:11:34.130Z,28.80
2022-11-09T01:14:02.686Z,30.20
2022-11-09T01:16:30.431Z,28.00
2022-11-09T01:19:02.210Z,28.80
2022-11-09T01:21:30.041Z,30.40
2022-11-09T01:24:02.019Z,29.50
2022-11-09T01:26:31.449Z,28.90
2022-11-09T01:28:59.692Z,30.00
2022-11-09T01:31:27.588Z,31.20
2022-11-09T01:33:55.658Z,26.80
2022-11-09T01:36:25.045Z,29.80
2022-11-09T01:38:52.942Z,29.90
2022-11-09T01:41:24.965Z,30.00
2022-11-09T01:44:21.866Z,28.90
2022-11-09T01:47:27.036Z,28.60
2022-11-09T01:50:00.216Z,28.80
2022-11-09T01:52:42.670Z,29.50
2022-11-09T01:55:18.514Z,27.90
2022-11-09T01:58:00.931Z,25.80
2022-11-09T02:00:30.030Z,28.10
2022-11-09T02:03:15.720Z,27.70
2022-11-09T02:05:44.498Z,28.90
2022-11-09T02:08:16.239Z,28.20
2022-11-09T02:10:49.607Z,28.60
2022-11-09T02:13:21.308Z,27.80
2022-11-09T02:15:49.785Z,27.00
2022-11-09T02:18:18.064Z,28.30
2022-11-09T02:20:58.222Z,28.80
2022-11-09T02:23:27.228Z,26.90
2022-11-09T02:26:00.298Z,28.90
2022-11-09T02:28:29.025Z,29.30
2022-11-09T02:30:57.871Z,28.20
2022-11-09T02:33:25.658Z,29.10
2022-11-09T02:35:53.401Z,28.90
2022-11-09T02:38:21.379Z,28.30
2022-11-09T02:40:51.793Z,27.10
2022-11-09T02:43:20.046Z,27.10
2022-11-09T02:45:48.242Z,27.00
2022-11-09T02:48:16.108Z,26.70
2022-11-09T02:50:43.834Z,28.60
2022-11-09T02:53:11.588Z,28.00
2022-11-09T02:55:39.289Z,31.00
2022-11-09T02:58:07.167Z,27.80
2022-11-09T03:00:35.126Z,27.80
2022-11-09T03:03:04.406Z,27.90
2022-11-09T03:05:32.199Z,26.70
2022-11-09T03:08:02.537Z,27.50
2022-11-09T03:10:30.487Z,27.20
2022-11-09T03:12:58.250Z,26.40
2022-11-09T03:15:25.999Z,28.30
2022-11-09T03:17:53.678Z,26.60
2022-11-09T03:20:21.441Z,27.70
2022-11-09T03:22:49.206Z,29.50
2022-11-09T03:25:16.891Z,26.70
2022-11-09T03:27:44.869Z,25.20
2022-11-09T03:30:12.902Z,26.70
2022-11-09T03:32:40.769Z,26.00
2022-11-09T03:35:09.250Z,29.40
2022-11-09T03:37:37.048Z,26.20
2022-11-09T03:40:05.700Z,25.60
2022-11-09T03:42:33.457Z,24.60
2022-11-09T03:45:01.149Z,25.70
2022-11-09T03:47:28.855Z,27.30
2022-11-09T03:49:56.651Z,28.50
2022-11-09T03:52:24.415Z,26.00
2022-11-09T03:54:52.106Z,23.90
2022-11-09T03:57:19.826Z,24.90
2022-11-09T03:59:47.520Z,26.50
2022-11-09T04:02:15.317Z,25.90
2022-11-09T04:04:43.108Z,22.90
2022-11-09T04:07:11.561Z,26.40
2022-11-09T04:09:39.400Z,23.50
2022-11-09T04:12:07.574Z,22.90
2022-11-09T04:14:35.286Z,23.70
2022-11-09T04:17:03.089Z,25.40
2022-11-09T04:19:30.841Z,21.90
2022-11-09T04:21:58.604Z,23.30
2022-11-09T04:24:26.366Z,21.90
2022-11-09T04:26:54.130Z,26.30
2022-11-09T04:29:21.912Z,26.80
2022-11-09T04:31:50.786Z,25.40
2022-11-09T04:34:18.946Z,23.90
2022-11-09T04:36:55.219Z,22.60
2022-11-09T04:39:23.045Z,22.10
2022-11-09T04:41:50.750Z,26.20
2022-11-09T04:44:18.691Z,23.90
2022-11-09T04:46:46.481Z,23.40
2022-11-09T04:49:14.353Z,23.60
2022-11-09T04:51:42.044Z,25.00
2022-11-09T04:54:11.238Z,24.30
2022-11-09T04:56:39.043Z,22.10
2022-11-09T04:59:06.939Z,21.60
2022-11-09T05:01:34.689Z,25.10
2022-11-09T05:04:02.503Z,22.00
2022-11-09T05:06:33.060Z,24.10
2022-11-09T05:09:05.232Z,22.60
2022-11-09T05:11:34.590Z,22.40
2022-11-09T05:14:03.460Z,22.80
2022-11-09T05:16:31.461Z,24.90
2022-11-09T05:18:59.178Z,22.10
2022-11-09T05:21:27.798Z,23.80
2022-11-09T05:24:03.071Z,24.90
2022-11-09T05:26:36.995Z,23.30
2022-11-09T05:29:09.982Z,21.90
2022-11-09T05:31:39.307Z,21.90
2022-11-09T05:34:08.372Z,22.90
2022-11-09T05:36:36.176Z,22.20
2022-11-09T05:39:03.885Z,25.60
2022-11-09T05:41:31.603Z,24.30
2022-11-09T05:43:59.385Z,21.90
2022-11-09T05:46:27.217Z,24.60
2022-11-09T05:48:54.992Z,26.30
2022-11-09T05:51:23.060Z,21.60
2022-11-09T05:53:51.130Z,23.80
2022-11-09T05:56:19.032Z,22.20
2022-11-09T05:58:46.849Z,21.80
2022-11-09T06:01:18.974Z,23.20
2022-11-09T06:03:47.913Z,23.00
2022-11-09T06:06:18.079Z,23.30
2022-11-09T06:08:46.337Z,22.10
2022-11-09T06:11:19.893Z,21.20
2022-11-09T06:13:52.814Z,22.90
2022-11-09T06:16:21.412Z,22.20
2022-11-09T06:18:49.217Z,20.60
2022-11-09T06:21:16.988Z,21.40
2022-11-09T06:23:44.760Z,19.90
2022-11-09T06:26:13.506Z,20.20
2022-11-09T06:28:42.589Z,19.10
2022-11-09T06:31:13.759Z,21.40
2022-11-09T06:33:41.593Z,19.50
2022-11-09T06:36:11.604Z,20.80
2022-11-09T06:38:40.613Z,17.10
2022-11-09T06:41:09.970Z,20.60
2022-11-09T06:43:37.775Z,17.50
2022-11-09T06:46:05.761Z,16.80
2022-11-09T06:48:33.983Z,19.60
2022-11-09T06:51:03.409Z,16.20
2022-11-09T06:53:33.623Z,20.30
2022-11-09T06:56:03.465Z,22.20
2022-11-09T06:58:32.404Z,19.40
2022-11-09T07:01:00.272Z,19.00
2022-11-09T07:03:28.037Z,19.40
2022-11-09T07:05:56.006Z,20.30
2022-11-09T07:08:23.910Z,20.80
2022-11-09T07:10:51.785Z,21.20
2022-11-09T07:13:19.856Z,20.40
2022-11-09T07:15:54.279Z,19.60
2022-11-09T07:18:21.963Z,17.20
2022-11-09T07:20:50.324Z,18.00
2022-11-09T07:23:18.873Z,18.40
2022-11-09T07:25:49.732Z,19.50
2022-11-09T07:28:17.554Z,18.60
2022-11-09T07:30:45.388Z,20.00
2022-11-09T07:33:16.184Z,19.90
2022-11-09T07:35:44.203Z,17.00
2022-11-09T07:38:12.800Z,20.40
2022-11-09T07:40:41.097Z,19.20
2022-11-09T07:43:11.111Z,19.00
2022-11-09T07:45:39.903Z,18.70
2022-11-09T07:48:10.995Z,18.30
2022-11-09T07:50:40.774Z,17.80
2022-11-09T07:53:11.154Z,18.10
2022-11-09T07:55:39.381Z,14.60
2022-11-09T07:58:10.975Z,16.60
2022-11-09T08:00:41.251Z,16.60
2022-11-09T08:03:10.545Z,15.60
2022-11-09T08:05:39.742Z,14.30
2022-11-09T08:08:10.585Z,16.70
2022-11-09T08:10:39.784Z,15.60
2022-11-09T08:13:13.788Z,15.90
2022-11-09T08:15:42.281Z,14.40
2022-11-09T08:18:14.165Z,16.30
2022-11-09T08:20:41.970Z,13.10
2022-11-09T08:23:14.321Z,15.20
2022-11-09T08:25:42.425Z,13.70
2022-11-09T08:28:15.840Z,13.60
2022-11-09T08:30:45.195Z,11.80
2022-11-09T08:33:14.133Z,13.50
2022-11-09T08:35:41.917Z,15.70
2022-11-09T08:38:09.688Z,12.60
2022-11-09T08:40:38.023Z,14.00
2022-11-09T08:43:08.339Z,13.30
2022-11-09T08:45:38.400Z,16.70
2022-11-09T08:48:07.866Z,13.30
2022-11-09T08:50:38.272Z,12.80
2022-11-09T08:53:07.994Z,16.40
2022-11-09T08:55:36.845Z,16.40
2022-11-09T08:58:05.241Z,12.20
2022-11-09T09:00:33.305Z,16.30
2022-11-09T09:03:05.507Z,12.70
2022-11-09T09:05:35.390Z,10.60
2022-11-09T09:08:05.949Z,13.10
2022-11-09T09:10:35.874Z,12.00
2022-11-09T09:13:04.557Z,14.10
2022-11-09T09:15:33.414Z,13.30
2022-11-09T09:18:02.635Z,12.80
2022-11-09T09:20:31.044Z,12.70
2022-11-09T09:23:00.484Z,12.10
2022-11-09T09:25:28.663Z,13.20
2022-11-09T09:27:56.963Z,12.00
2022-11-09T09:30:24.796Z,13.70
2022-11-09T09:32:52.530Z,15.90
2022-11-09T09:35:20.382Z,13.80
2022-11-09T09:37:48.728Z,13.90
2022-11-09T09:40:43.760Z,12.60
2022-11-09T09:43:26.740Z,12.90
2022-11-09T09:45:55.043Z,13.20
2022-11-09T09:48:41.753Z,13.40
2022-11-09T09:51:37.288Z,12.80
2022-11-09T09:54:25.955Z,18.20
2022-11-09T09:56:59.997Z,12.20
2022-11-09T09:59:40.557Z,15.30
2022-11-09T10:02:29.764Z,16.20
2022-11-09T10:05:00.533Z,13.00
2022-11-09T10:07:45.563Z,13.20
2022-11-09T10:10:31.238Z,13.00
2022-11-09T10:13:27.278Z,12.70
2022-11-09T10:16:15.787Z,13.90
2022-11-09T10:19:28.881Z,16.30
2022-11-09T10:22:11.769Z,12.60
2022-11-09T10:25:12.927Z,14.80
2022-11-09T10:27:36.545Z,14.90
2022-11-09T10:30:19.490Z,14.70
2022-11-09T10:32:51.565Z,14.70
2022-11-09T10:35:24.453Z,14.80
2022-11-09T10:37:55.187Z,16.30
2022-11-09T10:40:26.025Z,15.40
2022-11-09T10:42:57.002Z,15.20
2022-11-09T10:45:37.720Z,14.80
2022-11-09T10:48:07.520Z,15.70
2022-11-09T10:50:54.486Z,16.70
2022-11-09T10:53:31.227Z,15.80
2022-11-09T10:56:04.684Z,21.50
2022-11-09T11:01:13.680Z,17.10
2022-11-09T11:03:42.988Z,17.20
2022-11-09T11:06:23.177Z,19.60
2022-11-09T11:09:12.906Z,17.40
2022-11-09T11:11:40.926Z,18.70
2022-11-09T11:14:22.856Z,16.30
2022-11-09T11:16:53.284Z,17.30
2022-11-09T11:19:45.323Z,19.50
2022-11-09T11:22:14.208Z,17.50
2022-11-09T11:24:52.725Z,19.30
2022-11-09T11:27:38.259Z,19.70
2022-11-09T11:30:08.939Z,18.80
2022-11-09T11:32:36.677Z,18.40
2022-11-09T11:35:14.377Z,17.60
2022-11-09T11:37:47.889Z,19.90
2022-11-09T11:43:26.147Z,19.80
2022-11-09T11:46:31.783Z,19.40
2022-11-09T11:49:24.830Z,21.60
2022-11-09T11:52:00.576Z,18.00
2022-11-09T11:55:00.599Z,20.80
2022-11-09T11:57:34.526Z,20.40
2022-11-09T12:00:15.469Z,21.50
2022-11-09T12:03:05.211Z,22.10
2022-11-09T12:05:48.281Z,20.30
2022-11-09T12:08:29.054Z,21.50
2022-11-09T12:11:08.393Z,23.50
2022-11-09T12:14:13.526Z,20.00
2022-11-09T12:16:49.372Z,22.60
2022-11-09T12:19:23.941Z,21.20
2022-11-09T12:22:25.249Z,23.00
2022-11-09T12:25:05.037Z,21.30
2022-11-09T12:27:59.869Z,19.50
2022-11-09T12:30:46.369Z,22.20
2022-11-09T12:33:33.491Z,21.90
2022-11-09T12:36:20.541Z,23.10
2022-11-09T12:39:15.018Z,23.50
2022-11-09T12:41:44.286Z,22.70
2022-11-09T12:44:19.942Z,23.30
2022-11-09T12:47:06.759Z,23.60
2022-11-09T12:49:38.098Z,22.20
2022-11-09T12:52:09.077Z,22.90
2022-11-09T12:54:41.397Z,23.30
2022-11-09T12:57:13.890Z,26.20
2022-11-09T12:59:48.963Z,25.80
2022-11-09T13:02:37.759Z,21.80
2022-11-09T13:05:26.400Z,22.70
2022-11-09T13:07:55.157Z,22.30
2022-11-09T13:10:42.071Z,21.80
2022-11-09T13:13:12.719Z,22.50
2022-11-09T13:16:05.817Z,26.50
2022-11-09T13:18:45.165Z,23.90
2022-11-09T13:21:22.558Z,22.90
2022-11-09T13:24:04.362Z,21.50
2022-11-09T13:26:33.863Z,22.40
2022-11-09T13:29:28.082Z,23.00
2022-11-09T13:32:12.500Z,23.20
2022-11-09T13:34:47.871Z,23.50
2022-11-09T13:37:40.826Z,22.50
2022-11-09T13:40:33.549Z,24.30
2022-11-09T13:43:10.305Z,25.70
2022-11-09T13:45:58.485Z,22.50
2022-11-09T13:48:43.043Z,24.00
2022-11-09T13:51:22.430Z,23.40
2022-11-09T13:54:00.820Z,24.50
2022-11-09T13:56:33.570Z,24.10
2022-11-09T13:59:28.154Z,24.60
2022-11-09T14:01:58.458Z,22.20
2022-11-09T14:04:29.293Z,26.00
2022-11-09T14:07:07.388Z,24.90
2022-11-09T14:09:52.490Z,24.60
2022-11-09T14:12:51.012Z,24.70
2022-11-09T14:15:46.553Z,31.30
2022-11-09T14:18:46.575Z,24.80
2022-11-09T14:21:36.507Z,24.90
2022-11-09T14:24:37.467Z,23.70
2022-11-09T14:27:11.159Z,25.00
2022-11-09T14:30:02.675Z,24.90
2022-11-09T14:32:36.883Z,26.80
2022-11-09T14:35:20.065Z,24.20
2022-11-09T14:37:49.757Z,22.90
2022-11-09T14:40:21.747Z,25.10
2022-11-09T14:42:57.342Z,24.50
2022-11-09T14:45:26.228Z,23.20
2022-11-09T14:47:58.043Z,24.20
2022-11-09T14:50:33.676Z,25.20
2022-11-09T14:53:03.571Z,20.60
2022-11-09T14:55:40.598Z,26.00
2022-11-09T14:58:14.231Z,26.20
2022-11-09T15:00:45.954Z,28.00
2022-11-09T15:03:30.996Z,30.70
2022-11-09T15:06:08.338Z,28.70
2022-11-09T15:08:40.415Z,32.00
2022-11-09T15:11:08.308Z,29.50
2022-11-09T15:13:39.351Z,29.30
2022-11-09T15:16:08.360Z,27.30
2022-11-09T15:18:44.951Z,31.40
2022-11-09T15:21:14.607Z,30.10
2022-11-09T15:23:45.972Z,30.10
2022-11-09T15:26:39.279Z,30.30
2022-11-09T15:29:40.213Z,28.20
2022-11-09T15:32:10.774Z,29.00
2022-11-09T15:34:43.507Z,30.90
2022-11-09T15:37:22.687Z,28.10
2022-11-09T15:39:51.447Z,29.80
2022-11-09T15:42:19.835Z,28.50
2022-11-09T15:44:55.749Z,30.30
2022-11-09T15:47:37.493Z,31.50
2022-11-09T15:50:19.119Z,29.40
2022-11-09T15:52:46.870Z,30.50
2022-11-09T15:55:17.333Z,30.90
2022-11-09T15:57:45.524Z,33.30
2022-11-09T16:00:19.751Z,32.60
2022-11-09T16:02:49.490Z,34.70
2022-11-09T16:05:18.542Z,33.80
2022-11-09T16:07:51.604Z,32.70
2022-11-09T16:10:23.210Z,33.30
2022-11-09T16:12:53.329Z,33.50
2022-11-09T16:15:21.024Z,32.20
2022-11-09T16:17:50.435Z,33.30
2022-11-09T16:20:20.141Z,35.10
2022-11-09T16:22:48.634Z,39.00
2022-11-09T16:25:17.004Z,32.40
2022-11-09T16:27:52.449Z,34.90
2022-11-09T16:30:21.610Z,32.60
2022-11-09T16:32:49.414Z,34.80
2022-11-09T16:35:27.205Z,36.30
2022-11-09T16:37:58.256Z,34.50
2022-11-09T16:40:27.847Z,36.20
2022-11-09T16:42:55.829Z,34.70
2022-11-09T16:45:25.910Z,35.70
2022-11-09T16:47:59.946Z,34.30
2022-11-09T16:50:27.718Z,33.20
2022-11-09T16:52:55.469Z,34.00
2022-11-09T16:55:23.171Z,33.10
2022-11-09T16:57:50.888Z,30.40
2022-11-09T17:00:23.288Z,33.40
2022-11-09T17:02:50.987Z,35.90
2022-11-09T17:05:18.786Z,32.80
2022-11-09T17:07:49.661Z,35.80
2022-11-09T17:10:17.484Z,31.20
2022-11-09T17:12:45.207Z,37.20
2022-11-09T17:15:13.026Z,33.50
2022-11-09T17:17:40.757Z,33.20
2022-11-09T17:20:09.267Z,34.80
2022-11-09T17:22:39.263Z,32.00
2022-11-09T17:25:11.112Z,33.40
2022-11-09T17:27:38.889Z,33.50
2022-11-09T17:30:07.951Z,35.30
2022-11-09T17:32:38.250Z,33.40
2022-11-09T17:35:06.039Z,31.90
2022-11-09T17:37:33.795Z,30.00
2022-11-09T17:40:01.530Z,32.30
2022-11-09T17:42:29.293Z,30.40
2022-11-09T17:44:57.494Z,31.50
2022-11-09T17:47:25.513Z,34.70
2022-11-09T17:49:53.284Z,34.30
2022-11-09T17:52:20.968Z,32.50
2022-11-09T17:54:48.687Z,32.30
2022-11-09T17:57:16.454Z,31.20
2022-11-09T17:59:44.172Z,32.40
2022-11-09T18:02:11.988Z,35.20
2022-11-09T18:04:39.797Z,31.70
2022-11-09T18:07:07.615Z,30.80
2022-11-09T18:09:41.450Z,33.20
2022-11-09T18:12:10.169Z,28.80
2022-11-09T18:14:37.852Z,28.80
2022-11-09T18:17:05.756Z,31.30
2022-11-09T18:19:33.567Z,30.30
2022-11-09T18:22:03.036Z,33.70
2022-11-09T18:24:33.193Z,31.60
2022-11-09T18:27:01.174Z,32.50
2022-11-09T18:29:29.090Z,31.70
2022-11-09T18:31:56.821Z,32.90
2022-11-09T18:34:27.283Z,32.50
2022-11-09T18:36:54.999Z,31.50
2022-11-09T18:39:22.863Z,31.10
2022-11-09T18:41:52.334Z,31.60
2022-11-09T18:44:20.651Z,31.60
2022-11-09T18:46:48.361Z,32.70
2022-11-09T18:49:17.969Z,34.20
2022-11-09T18:51:46.134Z,32.60
2022-11-09T18:54:13.997Z,33.10
2022-11-09T18:56:41.774Z,31.10
2022-11-09T18:59:12.615Z,33.60
2022-11-09T19:01:41.181Z,32.90
2022-11-09T19:04:16.239Z,32.10
2022-11-09T19:06:44.791Z,31.90
2022-11-09T19:09:30.113Z,33.00
2022-11-09T19:12:01.598Z,31.70
2022-11-09T19:14:29.855Z,33.60
2022-11-09T19:16:57.961Z,31.70
2022-11-09T19:19:27.283Z,30.40
2022-11-09T19:21:57.017Z,33.70
2022-11-09T19:24:26.710Z,36.20
2022-11-09T19:26:56.013Z,33.90
2022-11-09T19:29:23.775Z,34.40
2022-11-09T19:31:51.610Z,36.10
2022-11-09T19:34:21.457Z,33.80
2022-11-09T19:36:49.227Z,32.30
2022-11-09T19:39:18.185Z,34.70
2022-11-09T19:41:46.146Z,36.30
2022-11-09T19:44:14.988Z,32.40
2022-11-09T19:46:43.251Z,34.50
2022-11-09T19:49:11.828Z,35.80
2022-11-09T19:51:40.761Z,32.90
2022-11-09T19:54:11.885Z,34.30
2022-11-09T19:56:39.619Z,34.20
2022-11-09T19:59:10.224Z,34.50
2022-11-09T20:01:38.017Z,33.70
2022-11-09T20:04:10.075Z,32.50
2022-11-09T20:06:40.082Z,34.90
2022-11-09T20:09:07.942Z,33.30
2022-11-09T20:11:54.214Z,34.50
2022-11-09T20:14:22.291Z,33.10
2022-11-09T20:16:50.025Z,33.20
2022-11-09T20:19:17.776Z,31.90
2022-11-09T20:21:45.570Z,34.60
2022-11-09T20:24:14.599Z,34.30
2022-11-09T20:26:44.113Z,32.60
2022-11-09T20:29:12.071Z,33.40
2022-11-09T20:31:40.481Z,34.70
2022-11-09T20:34:09.294Z,32.30
2022-11-09T20:36:37.128Z,32.10
2022-11-09T20:39:05.382Z,30.10
2022-11-09T20:41:33.630Z,31.70
2022-11-09T20:44:01.351Z,30.50
2022-11-09T20:46:35.428Z,32.60
2022-11-09T20:49:04.709Z,31.60
2022-11-09T20:51:32.714Z,34.00
2022-11-09T20:54:06.647Z,33.40
2022-11-09T20:56:37.463Z,31.70
2022-11-09T20:59:05.632Z,34.80
2022-11-09T21:01:33.861Z,33.00
2022-11-09T21:04:01.789Z,33.60
2022-11-09T21:06:30.092Z,34.90
2022-11-09T21:09:00.482Z,31.70
2022-11-09T21:11:57.371Z,34.20
2022-11-09T21:14:25.196Z,31.90
2022-11-09T21:16:53.235Z,35.30
2022-11-09T21:19:21.051Z,31.40
2022-11-09T21:21:48.765Z,32.60
2022-11-09T21:24:35.300Z,30.00
2022-11-09T21:27:21.721Z,31.00
2022-11-09T21:29:52.105Z,32.10
2022-11-09T21:32:21.381Z,33.00
2022-11-09T21:34:51.069Z,32.70
2022-11-09T21:37:18.798Z,32.60
2022-11-09T21:39:46.902Z,34.30
2022-11-09T21:42:15.085Z,34.60
2022-11-09T21:44:42.852Z,34.90
2022-11-09T21:47:10.733Z,34.20
2022-11-09T21:49:38.496Z,36.60
2022-11-09T21:52:06.309Z,32.20
2022-11-09T21:54:34.030Z,35.30
2022-11-09T21:57:01.855Z,34.20
2022-11-09T21:59:29.540Z,34.60
2022-11-09T22:01:57.351Z,32.60
2022-11-09T22:04:25.166Z,33.80
2022-11-09T22:06:53.019Z,32.80
2022-11-09T22:09:20.756Z,31.70
2022-11-09T22:12:07.109Z,33.70
2022-11-09T22:14:53.645Z,33.90
2022-11-09T22:17:21.419Z,34.30
2022-11-09T22:20:21.422Z,33.90
2022-11-09T22:22:49.273Z,38.50
2022-11-09T22:25:17.055Z,31.90
2022-11-09T22:27:44.750Z,34.30
2022-11-09T22:30:13.044Z,35.20
2022-11-09T22:32:40.922Z,38.40
2022-11-09T22:35:09.078Z,36.40
2022-11-09T22:37:36.763Z,36.90
2022-11-09T22:40:05.730Z,38.40
2022-11-09T22:42:33.848Z,39.60
2022-11-09T22:45:01.797Z,36.60
2022-11-09T22:47:29.756Z,36.10
2022-11-09T22:49:57.450Z,36.00
2022-11-09T22:52:25.167Z,38.40
2022-11-09T22:54:52.868Z,36.90
2022-11-09T22:57:21.238Z,44.40
2022-11-09T22:59:49.089Z,37.80
2022-11-09T23:02:16.754Z,37.50
2022-11-09T23:04:44.615Z,36.80
2022-11-09T23:07:12.481Z,37.30
2022-11-09T23:09:40.244Z,36.00
2022-11-09T23:12:08.910Z,38.50
2022-11-09T23:14:55.295Z,42.10
2022-11-09T23:17:41.546Z,37.10
2022-11-09T23:20:10.828Z,37.30
2022-11-09T23:22:38.594Z,38.40
2022-11-09T23:25:25.639Z,36.80
2022-11-09T23:27:53.864Z,36.50
2022-11-09T23:30:22.370Z,37.60
2022-11-09T23:32:50.126Z,34.30
2022-11-09T23:35:19.021Z,36.10
2022-11-09T23:37:46.786Z,36.90
2022-11-09T23:40:14.595Z,36.80
2022-11-09T23:42:42.320Z,36.70
2022-11-09T23:45:10.379Z,34.30
2022-11-09T23:47:38.241Z,33.90
2022-11-09T23:50:07.058Z,34.50
2022-11-09T23:52:35.292Z,35.00
2022-11-09T23:55:03.253Z,34.30
2022-11-09T23:57:31.006Z,33.60
2022-11-09T23:59:58.798Z,35.10
